createdAt,value
2023-04-30T00:01:33.088Z,9.20
2023-04-30T00:07:35.547Z,8.97
2023-04-30T00:13:38.020Z,5.57
2023-04-30T00:19:40.502Z,8.93
2023-04-30T00:25:42.965Z,5.57
2023-04-30T00:31:50.342Z,6.57
2023-04-30T00:37:52.924Z,6.87
2023-04-30T00:43:55.416Z,6.43
2023-04-30T00:49:57.881Z,7.50
2023-04-30T00:56:00.369Z,8.40
2023-04-30T01:02:03.918Z,5.33
2023-04-30T01:08:06.344Z,4.23
2023-04-30T01:14:13.805Z,3.53
2023-04-30T01:20:16.287Z,6.80
2023-04-30T01:26:39.887Z,6.37
2023-04-30T01:32:42.379Z,4.23
2023-04-30T01:39:09.857Z,5.07
2023-04-30T01:45:11.635Z,4.40
2023-04-30T01:51:33.932Z,3.23
2023-04-30T01:57:56.447Z,5.10
2023-04-30T02:04:00.073Z,4.33
2023-04-30T02:10:02.421Z,3.50
2023-04-30T02:16:04.928Z,3.37
2023-04-30T02:22:07.409Z,2.70
2023-04-30T02:28:12.907Z,2.43
2023-04-30T02:34:14.724Z,4.30
2023-04-30T02:40:16.822Z,3.80
2023-04-30T02:46:20.390Z,5.47
2023-04-30T02:52:22.832Z,4.13
2023-04-30T02:58:25.274Z,3.50
2023-04-30T03:04:27.745Z,4.60
2023-04-30T03:10:32.276Z,3.87
2023-04-30T03:16:34.801Z,5.47
2023-04-30T03:22:37.229Z,2.80
2023-04-30T03:28:39.694Z,3.73
2023-04-30T03:34:42.167Z,3.23
2023-04-30T03:40:44.697Z,3.13
2023-04-30T03:46:47.107Z,2.83
2023-04-30T03:52:52.608Z,3.07
2023-04-30T03:58:56.089Z,2.40
2023-04-30T04:04:59.941Z,4.43
2023-04-30T04:11:02.199Z,4.67
2023-04-30T04:17:07.589Z,4.17
2023-04-30T04:23:10.068Z,3.57
2023-04-30T04:29:12.379Z,5.27
2023-04-30T04:35:19.453Z,3.53
2023-04-30T04:41:23.502Z,5.87
2023-04-30T04:47:25.982Z,4.37
2023-04-30T04:53:28.454Z,4.20
2023-04-30T04:59:33.950Z,6.53
2023-04-30T05:05:36.418Z,5.20
2023-04-30T05:11:38.770Z,6.90
2023-04-30T05:17:46.438Z,8.33
2023-04-30T05:23:49.813Z,10.20
2023-04-30T05:29:52.607Z,9.80
2023-04-30T05:35:57.869Z,10.03
2023-04-30T05:42:00.360Z,7.00
2023-04-30T05:48:03.087Z,8.43
2023-04-30T05:54:08.065Z,8.17
2023-04-30T06:00:10.849Z,7.03
2023-04-30T06:06:14.331Z,6.97
2023-04-30T06:12:20.732Z,6.23
2023-04-30T06:18:23.250Z,4.30
2023-04-30T06:24:28.682Z,3.80
2023-04-30T06:30:32.333Z,3.97
2023-04-30T06:36:34.119Z,3.13
2023-04-30T06:42:36.148Z,4.20
2023-04-30T06:48:38.003Z,3.63
2023-04-30T06:54:43.077Z,3.17
2023-04-30T07:00:45.540Z,2.30
2023-04-30T07:06:48.988Z,1.80
2023-04-30T07:12:53.953Z,2.10
2023-04-30T07:18:56.972Z,2.10
2023-04-30T07:24:59.391Z,1.60
2023-04-30T07:31:03.905Z,1.60
2023-04-30T07:37:08.392Z,1.20
2023-04-30T07:43:22.040Z,1.53
2023-04-30T07:49:50.491Z,1.83
2023-04-30T07:55:52.950Z,1.57
2023-04-30T08:02:03.375Z,2.33
2023-04-30T08:08:05.988Z,1.67
2023-04-30T08:14:08.370Z,1.67
2023-04-30T08:20:11.881Z,1.83
2023-04-30T08:26:14.361Z,2.00
2023-04-30T08:32:16.182Z,1.73
2023-04-30T08:38:19.295Z,1.80
2023-04-30T08:44:27.789Z,1.23
2023-04-30T08:50:30.284Z,1.30
2023-04-30T08:56:35.801Z,1.30
2023-04-30T09:02:45.470Z,1.60
2023-04-30T09:08:49.814Z,2.23
2023-04-30T09:15:04.340Z,1.27
2023-04-30T09:21:08.736Z,1.50
2023-04-30T09:27:23.272Z,3.27
2023-04-30T09:33:25.724Z,1.40
2023-04-30T09:39:28.198Z,2.20
2023-04-30T09:45:56.034Z,1.80
2023-04-30T09:52:02.279Z,1.90
2023-04-30T09:58:09.775Z,8.90
2023-04-30T10:04:13.419Z,1.43
2023-04-30T10:10:15.811Z,1.63
2023-04-30T10:16:52.362Z,1.43
2023-04-30T10:22:54.823Z,1.73
2023-04-30T10:28:59.404Z,1.43
2023-04-30T10:35:13.016Z,1.70
2023-04-30T10:41:18.346Z,1.50
2023-04-30T10:47:21.867Z,1.70
2023-04-30T10:53:29.354Z,1.63
2023-04-30T10:59:31.857Z,1.97
2023-04-30T11:05:38.333Z,1.70
2023-04-30T11:11:40.786Z,1.50
2023-04-30T11:17:46.351Z,1.40
2023-04-30T11:23:50.713Z,1.17
2023-04-30T11:29:54.381Z,1.33
2023-04-30T11:36:02.752Z,4.83
2023-04-30T11:42:05.203Z,1.60
2023-04-30T11:48:07.758Z,3.00
2023-04-30T11:54:13.229Z,1.90
2023-04-30T12:00:20.767Z,1.63
2023-04-30T12:06:28.379Z,1.70
2023-04-30T12:12:31.737Z,1.40
2023-04-30T12:18:36.196Z,2.10
2023-04-30T12:24:40.722Z,2.23
2023-04-30T12:30:44.163Z,2.40
2023-04-30T12:36:46.611Z,2.20
2023-04-30T12:42:49.100Z,1.77
2023-04-30T12:48:51.636Z,1.60
2023-04-30T12:54:56.306Z,1.40
2023-04-30T13:01:01.539Z,1.47
2023-04-30T13:07:07.001Z,1.30
2023-04-30T13:13:09.477Z,1.53
2023-04-30T13:19:13.013Z,1.37
2023-04-30T13:25:15.439Z,1.03
2023-04-30T13:31:18.138Z,1.40
2023-04-30T13:37:21.349Z,1.75
2023-04-30T13:43:26.274Z,3.37
2023-04-30T13:49:28.398Z,1.37
2023-04-30T13:55:30.876Z,1.30
2023-04-30T14:01:34.462Z,1.63
2023-04-30T14:07:37.863Z,1.63
2023-04-30T14:13:40.325Z,1.75
2023-04-30T14:19:42.817Z,1.33
2023-04-30T14:25:45.314Z,1.77
2023-04-30T14:31:50.829Z,1.60
2023-04-30T14:37:53.289Z,1.52
2023-04-30T14:43:58.123Z,2.40
2023-04-30T14:50:05.545Z,1.73
2023-04-30T14:56:09.763Z,1.50
2023-04-30T15:02:22.350Z,1.77
2023-04-30T15:08:34.488Z,1.50
2023-04-30T15:14:37.300Z,1.60
2023-04-30T15:20:42.778Z,1.30
2023-04-30T15:26:45.303Z,2.03
2023-04-30T15:32:50.801Z,1.08
2023-04-30T15:38:53.240Z,1.70
2023-04-30T15:44:58.744Z,1.70
2023-04-30T15:51:01.199Z,1.60
2023-04-30T15:57:10.935Z,1.40
2023-04-30T16:03:21.336Z,1.40
2023-04-30T16:09:28.539Z,1.47
2023-04-30T16:15:33.562Z,0.90
2023-04-30T16:21:39.052Z,1.40
2023-04-30T16:27:42.109Z,1.20
2023-04-30T16:33:44.606Z,1.30
2023-04-30T16:39:49.176Z,1.40
2023-04-30T16:45:55.706Z,1.27
2023-04-30T16:51:58.084Z,1.63
2023-04-30T16:58:07.962Z,1.57
2023-04-30T17:04:14.052Z,1.10
2023-04-30T17:10:21.486Z,1.10
2023-04-30T17:16:23.997Z,1.10
2023-04-30T17:22:29.456Z,1.30
2023-04-30T17:28:33.998Z,1.20
2023-04-30T17:34:39.432Z,1.00
2023-04-30T17:40:41.911Z,2.73
2023-04-30T17:46:45.411Z,1.73
2023-04-30T17:52:47.836Z,1.97
2023-04-30T17:58:50.323Z,1.77
2023-04-30T18:04:52.799Z,1.83
2023-04-30T18:10:56.264Z,1.83
2023-04-30T18:16:58.790Z,2.30
2023-04-30T18:23:01.260Z,2.63
2023-04-30T18:29:03.731Z,2.13
2023-04-30T18:35:07.209Z,1.87
2023-04-30T18:41:09.677Z,1.90
2023-04-30T18:47:12.157Z,1.80
2023-04-30T18:53:14.582Z,2.47
2023-04-30T18:59:18.071Z,2.00
2023-04-30T19:05:21.605Z,3.33
2023-04-30T19:11:24.078Z,2.80
2023-04-30T19:17:26.585Z,7.77
2023-04-30T19:23:33.069Z,8.83
2023-04-30T19:29:37.369Z,4.97
2023-04-30T19:35:39.989Z,3.93
2023-04-30T19:41:42.463Z,3.30
2023-04-30T19:47:44.953Z,3.70
2023-04-30T19:53:48.417Z,3.83
2023-04-30T19:59:50.881Z,3.30
2023-04-30T20:05:53.371Z,3.43
2023-04-30T20:11:56.863Z,2.30
2023-04-30T20:18:00.507Z,2.73
2023-04-30T20:24:04.817Z,2.40
2023-04-30T20:30:11.320Z,2.30
2023-04-30T20:36:13.755Z,2.50
2023-04-30T20:42:16.262Z,3.33
2023-04-30T20:48:18.813Z,4.70
2023-04-30T20:54:23.331Z,3.20
2023-04-30T21:00:25.686Z,2.80
2023-04-30T21:06:31.193Z,2.70
2023-04-30T21:12:33.662Z,3.20
2023-04-30T21:18:36.068Z,3.50
2023-04-30T21:24:41.569Z,3.50
2023-04-30T21:30:44.115Z,5.07
2023-04-30T21:36:47.546Z,5.67
2023-04-30T21:42:50.997Z,6.40
2023-04-30T21:48:53.473Z,6.57
2023-04-30T21:54:55.982Z,8.00
2023-04-30T22:01:01.432Z,8.30
2023-04-30T22:07:03.921Z,8.13
2023-04-30T22:13:06.362Z,7.77
2023-04-30T22:19:18.191Z,8.20
2023-04-30T22:25:21.372Z,9.33
2023-04-30T22:31:23.964Z,8.57
2023-04-30T22:37:27.346Z,8.37
2023-04-30T22:43:31.868Z,9.60
2023-04-30T22:49:35.365Z,10.60
2023-04-30T22:55:37.810Z,9.43
2023-04-30T23:01:42.348Z,10.30
2023-04-30T23:07:49.840Z,11.67
2023-04-30T23:13:52.283Z,10.20
2023-04-30T23:19:57.081Z,9.23
2023-04-30T23:26:01.307Z,9.53
2023-04-30T23:32:03.872Z,8.90
2023-04-30T23:38:07.262Z,8.97
2023-04-30T23:44:09.731Z,7.37
2023-04-30T23:50:13.234Z,7.00
2023-04-30T23:56:15.691Z,6.53
